Terminal Aerodrome Forecast
Issued by NWS Brownsville, TX

Home | Current Version | Previous Version | Text Only | Print | Product List | Glossary On
Versions: 1 2 3 4 5 6 7 8 9 10 11 12 13 14 15 16 17 18 19 20 21
000
FTUS44 KBRO 171700
TAFHRL
TAF
KHRL 171724Z 1718/1818 17010KT P6SM SCT035
     FM171900 15010G16KT P6SM BKN035
     FM172100 15012G17KT P6SM SCT040 SCT250
     FM180200 14007KT P6SM SCT250
     FM181000 15006KT P6SM SCT020
     FM181300 16010G15KT P6SM BKN030=

USA.gov is the U.S. government's official web portal to all federal, state and local government web resources and services.